Time;durP1;ratioP1;P1;durP2;ratioP2;P2;SDS_P1;SDS_P2;PMS_P1;PMS_P2;Temp;Humidity;BMP_temperature;BMP_pressure;BME280_temperature;BME280_humidity;BME280_pressure;Samples;Min_cycle;Max_cycle;Signal;HPM_P1;HPM_P2
2022/11/29 00:02:10;;;;;;;43.92;29.30;;;;;;;5.35;100.00;101293.56;4989877;28;20101;-64
2022/11/29 00:04:36;;;;;;;43.22;29.08;;;;;;;5.34;100.00;101295.28;4989236;28;20374;-63
2022/11/29 00:07:01;;;;;;;39.42;27.65;;;;;;;5.32;100.00;101296.88;4989107;28;20030;-64
2022/11/29 00:09:26;;;;;;;38.63;26.70;;;;;;;5.33;100.00;101300.28;4979979;28;20018;-64
2022/11/29 00:14:36;;;;;;;36.92;26.63;;;;;;;5.31;100.00;101297.63;4989948;28;20139;-64
2022/11/29 00:17:03;;;;;;;35.42;26.45;;;;;;;5.29;100.00;101291.50;4987309;28;20082;-63
2022/11/29 00:19:29;;;;;;;34.83;27.05;;;;;;;5.27;100.00;101291.41;4989394;28;20026;-64
2022/11/29 00:21:54;;;;;;;34.80;27.63;;;;;;;5.26;100.00;101299.03;4988389;28;20117;-63
2022/11/29 00:24:20;;;;;;;30.77;24.08;;;;;;;5.26;100.00;101302.50;4989608;28;20141;-63
2022/11/29 00:26:45;;;;;;;38.22;25.52;;;;;;;5.26;100.00;101306.75;4989717;28;20080;-63
2022/11/29 00:29:12;;;;;;;32.55;25.00;;;;;;;5.24;100.00;101300.63;4989216;28;20030;-63
2022/11/29 00:31:37;;;;;;;37.47;25.52;;;;;;;5.24;100.00;101303.19;4987713;28;20034;-64
2022/11/29 00:34:05;;;;;;;30.88;25.25;;;;;;;5.22;100.00;101309.91;4989271;28;20482;-63
2022/11/29 00:36:32;;;;;;;31.55;25.23;;;;;;;5.20;100.00;101309.81;4989065;28;20018;-63
2022/11/29 00:38:57;;;;;;;32.45;25.05;;;;;;;5.20;100.00;101307.25;4988839;28;20112;-63
2022/11/29 00:41:23;;;;;;;32.38;25.25;;;;;;;5.17;100.00;101314.78;4978322;28;20029;-64
2022/11/29 00:43:48;;;;;;;32.60;23.58;;;;;;;5.15;100.00;101308.66;4978913;28;20035;-63
2022/11/29 00:46:14;;;;;;;31.65;23.50;;;;;;;5.15;100.00;101308.66;4988195;28;20047;-63
2022/11/29 00:48:39;;;;;;;32.47;23.52;;;;;;;5.13;100.00;101311.13;4988521;28;20423;-64
2022/11/29 00:51:06;;;;;;;30.90;23.65;;;;;;;5.12;100.00;101308.47;4977328;28;20018;-64
2022/11/29 00:53:32;;;;;;;32.67;23.45;;;;;;;5.10;100.00;101302.34;4988746;28;20110;-63
2022/11/29 00:55:57;;;;;;;30.55;23.05;;;;;;;5.09;100.00;101308.28;4988303;28;20025;-63
2022/11/29 00:58:22;;;;;;;31.63;23.50;;;;;;;5.09;100.00;101304.03;4988703;28;20019;-63
2022/11/29 01:00:48;;;;;;;28.33;22.50;;;;;;;5.09;100.00;101303.16;4983808;28;20034;-63
2022/11/29 01:03:14;;;;;;;29.88;22.90;;;;;;;5.09;100.00;101303.16;4982415;28;20018;-64
2022/11/29 01:05:41;;;;;;;32.42;22.73;;;;;;;5.09;100.00;101305.72;4987586;28;20030;-64
2022/11/29 01:08:07;;;;;;;30.17;24.03;;;;;;;5.09;100.00;101308.28;4988935;28;20443;-63
2022/11/29 01:10:33;;;;;;;27.65;22.02;;;;;;;5.10;100.00;101304.91;4987900;28;20060;-64
2022/11/29 01:12:58;;;;;;;27.63;21.15;;;;;;;5.11;100.00;101302.44;4989327;28;20053;-63
2022/11/29 01:15:24;;;;;;;27.48;20.52;;;;;;;5.12;100.00;101303.34;4988615;28;20511;-63
2022/11/29 01:17:49;;;;;;;25.08;20.50;;;;;;;5.12;100.00;101303.34;4988874;28;20450;-64
2022/11/29 01:20:15;;;;;;;25.20;21.35;;;;;;;5.12;100.00;101314.50;4988212;28;20027;-63
2022/11/29 01:22:41;;;;;;;23.90;20.88;;;;;;;5.12;100.00;101308.47;4988205;28;20018;-64
2022/11/29 01:25:07;;;;;;;23.90;20.13;;;;;;;5.12;100.00;101309.38;4988833;28;20438;-63
2022/11/29 01:27:33;;;;;;;24.35;20.85;;;;;;;5.12;100.00;101305.91;4988540;28;20062;-63
2022/11/29 01:29:59;;;;;;;23.25;18.77;;;;;;;5.12;100.00;101313.63;4988507;28;20097;-64
2022/11/29 01:32:25;;;;;;;23.90;19.83;;;;;;;5.09;100.00;101306.59;4988688;28;20482;-63
2022/11/29 01:34:50;;;;;;;22.13;18.83;;;;;;;5.08;100.00;101309.97;4988699;28;20066;-63
2022/11/29 01:37:16;;;;;;;24.92;19.63;;;;;;;5.05;100.00;101309.78;4989058;28;20494;-63
2022/11/29 01:39:41;;;;;;;24.17;19.40;;;;;;;5.03;100.00;101312.25;4974200;28;20029;-63
2022/11/29 01:42:10;;;;;;;24.33;19.80;;;;;;;5.02;100.00;101317.28;4988753;28;20027;-63
2022/11/29 01:44:35;;;;;;;21.95;19.10;;;;;;;4.99;100.00;101320.56;4976230;28;20413;-64
2022/11/29 01:47:00;;;;;;;20.92;18.73;;;;;;;4.98;100.00;101318.78;4988328;28;20057;-64
2022/11/29 01:49:47;;;;;;;22.10;19.25;;;;;;;4.95;100.00;101328.84;4987984;28;20023;-64
2022/11/29 01:52:20;;;;;;;20.92;18.52;;;;;;;4.92;100.00;101328.66;4987186;28;20050;-64
2022/11/29 01:54:48;;;;;;;20.73;18.52;;;;;;;4.90;100.00;101336.28;4988591;28;20505;-64
2022/11/29 01:57:14;;;;;;;24.50;20.58;;;;;;;4.89;100.00;101337.06;4988327;28;20049;-63
2022/11/29 01:59:44;;;;;;;21.67;19.48;;;;;;;4.89;100.00;101336.19;4987773;28;20487;-64
2022/11/29 02:02:13;;;;;;;22.40;20.00;;;;;;;4.90;100.00;101344.00;4986690;28;20502;-64
2022/11/29 02:04:42;;;;;;;26.55;21.58;;;;;;;4.91;100.00;101353.47;4987973;28;20038;-64
2022/11/29 02:07:08;;;;;;;30.70;23.25;;;;;;;4.93;100.00;101349.31;4985387;28;20034;-63
2022/11/29 02:09:33;;;;;;;35.08;24.67;;;;;;;4.95;100.00;101354.53;4987446;28;20030;-64
2022/11/29 02:12:26;;;;;;;29.88;23.27;;;;;;;4.96;100.00;101352.88;4987512;28;20041;-63
2022/11/29 02:15:14;;;;;;;27.42;22.65;;;;;;;4.97;100.00;101358.09;4987259;28;20034;-64
2022/11/29 02:17:57;;;;;;;32.17;22.90;;;;;;;4.97;100.00;101355.53;4976901;28;20467;-64
2022/11/29 02:20:31;;;;;;;29.23;23.38;;;;;;;4.98;100.00;101356.44;4985396;28;20034;-64
2022/11/29 02:23:19;;;;;;;39.50;25.17;;;;;;;4.96;100.00;101356.34;4985666;28;20631;-64
2022/11/29 02:26:13;;;;;;;40.80;25.88;;;;;;;4.95;100.00;101362.25;4987667;28;20061;-63
2022/11/29 02:29:03;;;;;;;36.80;25.98;;;;;;;4.95;100.00;101361.38;4990044;28;20035;-64
2022/11/29 02:31:41;;;;;;;40.80;25.08;;;;;;;4.96;100.00;101361.47;4989607;28;20403;-63
2022/11/29 02:34:19;;;;;;;43.17;26.93;;;;;;;4.95;100.00;101362.25;4991597;28;20022;-63
2022/11/29 02:37:03;;;;;;;40.75;25.52;;;;;;;4.95;100.00;101361.38;4990680;28;20485;-63
2022/11/29 02:39:54;;;;;;;38.63;25.30;;;;;;;4.94;100.00;101363.06;4991083;28;20113;-63
2022/11/29 02:42:47;;;;;;;39.58;26.15;;;;;;;4.91;100.00;101366.31;4991373;28;20037;-64
2022/11/29 02:45:28;;;;;;;43.08;26.55;;;;;;;4.91;100.00;101363.72;4990695;28;20141;-63
2022/11/29 02:48:12;;;;;;;41.15;26.48;;;;;;;4.91;100.00;101361.16;4991037;28;20109;-63
2022/11/29 02:50:43;;;;;;;38.42;26.08;;;;;;;4.92;100.00;101369.78;4991191;28;20045;-63
2022/11/29 02:53:30;;;;;;;38.25;26.05;;;;;;;4.92;100.00;101372.34;4990833;28;20480;-63
2022/11/29 02:56:15;;;;;;;41.65;28.70;;;;;;;4.95;100.00;101371.66;4977796;28;20169;-64
2022/11/29 02:59:00;;;;;;;35.17;27.48;;;;;;;4.97;100.00;101368.38;4989045;28;20022;-63
2022/11/29 03:01:48;;;;;;;38.35;27.52;;;;;;;4.99;100.00;101368.47;4989207;28;20109;-64
2022/11/29 03:04:35;;;;;;;33.40;26.73;;;;;;;4.98;100.00;101370.19;4989787;28;20061;-63
2022/11/29 03:07:22;;;;;;;32.55;25.40;;;;;;;4.99;100.00;101377.06;4990924;28;20030;-63
2022/11/29 03:10:16;;;;;;;32.58;25.60;;;;;;;4.97;100.00;101365.81;4990419;28;20138;-63
2022/11/29 03:12:46;;;;;;;30.67;23.20;;;;;;;4.98;100.00;101383.03;4981187;28;20058;-63
2022/11/29 03:15:28;;;;;;;33.05;25.48;;;;;;;4.98;100.00;101383.03;4989552;28;20029;-64
2022/11/29 03:18:30;;;;;;;29.52;24.70;;;;;;;4.97;100.00;101386.34;4990704;28;20453;-63
2022/11/29 03:21:25;;;;;;;29.08;24.92;;;;;;;4.96;100.00;101386.25;4980593;28;20036;-64
2022/11/29 03:23:58;;;;;;;29.60;24.58;;;;;;;4.96;100.00;101389.72;4989340;28;20025;-63
2022/11/29 03:26:42;;;;;;;28.38;24.35;;;;;;;4.94;100.00;101393.88;4990685;28;20026;-64
2022/11/29 03:29:22;;;;;;;26.83;24.02;;;;;;;4.94;100.00;101401.59;4990684;28;20149;-63
2022/11/29 03:32:11;;;;;;;27.98;24.30;;;;;;;4.94;100.00;101399.00;4983402;28;20026;-63
2022/11/29 03:35:00;;;;;;;28.90;23.27;;;;;;;4.94;100.00;101404.16;4986996;28;20026;-63
2022/11/29 03:37:42;;;;;;;26.90;23.98;;;;;;;4.92;100.00;101409.19;4990798;28;20525;-63
2022/11/29 03:40:12;;;;;;;26.15;23.35;;;;;;;4.89;100.00;101408.09;4979696;28;20057;-63
2022/11/29 03:42:56;;;;;;;25.60;22.92;;;;;;;4.86;100.00;101408.78;4983600;28;20026;-63
2022/11/29 03:45:43;;;;;;;27.23;23.65;;;;;;;4.84;100.00;101419.75;4986442;28;20046;-63
2022/11/29 03:48:17;;;;;;;28.38;24.20;;;;;;;4.84;100.00;101423.19;4978495;28;20134;-63
2022/11/29 03:50:49;;;;;;;27.92;23.40;;;;;;;4.84;100.00;101417.19;4989788;28;20509;-64
2022/11/29 03:53:38;;;;;;;34.50;23.38;;;;;;;4.80;100.00;101418.69;4990020;28;20101;-64
2022/11/29 03:56:22;;;;;;;28.83;24.45;;;;;;;4.78;100.00;101425.38;4978701;28;20038;-63
2022/11/29 03:59:03;;;;;;;26.90;24.03;;;;;;;4.77;100.00;101429.63;4989669;28;20446;-63
2022/11/29 04:01:53;;;;;;;29.42;23.38;;;;;;;4.76;100.00;101433.00;4989306;28;20077;-64
2022/11/29 04:04:44;;;;;;;26.40;23.38;;;;;;;4.78;100.00;101431.41;4990005;28;20136;-63
2022/11/29 04:07:37;;;;;;;25.17;22.48;;;;;;;4.80;100.00;101437.53;4988358;28;20029;-63
2022/11/29 04:10:12;;;;;;;26.17;23.38;;;;;;;4.78;100.00;101434.00;4990138;28;20042;-64
2022/11/29 04:12:59;;;;;;;27.50;24.50;;;;;;;4.78;100.00;101444.25;4987757;28;20030;-63
2022/11/29 04:15:52;;;;;;;26.95;24.05;;;;;;;4.78;100.00;101441.69;4990235;28;20185;-63
2022/11/29 04:18:26;;;;;;;30.17;23.83;;;;;;;4.78;100.00;101441.69;4979603;28;20375;-63
2022/11/29 04:21:12;;;;;;;28.93;24.33;;;;;;;4.77;100.00;101449.28;4987985;28;20089;-63
2022/11/29 04:24:16;;;;;;;24.50;22.00;;;;;;;4.75;100.00;101440.59;4989552;28;20110;-64
2022/11/29 04:27:02;;;;;;;26.60;23.77;;;;;;;4.75;100.00;101446.59;4969549;28;20042;-63
2022/11/29 04:29:49;;;;;;;25.87;23.17;;;;;;;4.76;100.00;101445.84;4983666;28;20023;-63
2022/11/29 04:32:28;;;;;;;27.17;23.93;;;;;;;4.78;100.00;101445.94;4989214;28;20030;-64
2022/11/29 04:35:22;;;;;;;25.13;22.43;;;;;;;4.75;100.00;101453.44;4987390;28;20150;-63
2022/11/29 04:38:08;;;;;;;28.90;21.03;;;;;;;4.69;100.00;101457.34;4974547;28;20035;-63
2022/11/29 04:41:00;;;;;;;24.83;22.17;;;;;;;4.67;100.00;101458.06;4988243;28;20028;-63
2022/11/29 04:43:53;;;;;;;24.05;20.77;;;;;;;4.64;100.00;101452.72;4988404;28;20611;-63
2022/11/29 04:46:34;;;;;;;25.83;21.10;;;;;;;4.62;100.00;101459.44;4989325;28;20049;-64
2022/11/29 04:49:35;;;;;;;24.10;21.40;;;;;;;4.62;100.00;101462.91;4978361;28;20117;-63
2022/11/29 04:52:18;;;;;;;23.40;20.93;;;;;;;4.61;100.00;101467.91;4976831;28;20123;-64
2022/11/29 04:54:55;;;;;;;22.50;20.33;;;;;;;4.62;100.00;101464.56;4987260;28;20470;-63
2022/11/29 04:57:30;;;;;;;24.70;21.97;;;;;;;4.62;100.00;101460.34;4988674;28;20058;-63
2022/11/29 05:00:08;;;;;;;23.60;20.77;;;;;;;4.63;100.00;101471.47;4987778;28;20030;-63
2022/11/29 05:02:56;;;;;;;23.80;20.95;;;;;;;4.61;100.00;101471.38;4987007;28;20030;-64
2022/11/29 05:05:46;;;;;;;25.15;21.15;;;;;;;4.57;100.00;101477.09;4979102;28;20069;-64
2022/11/29 05:08:12;;;;;;;25.50;21.57;;;;;;;4.56;100.00;101481.34;4984161;28;20108;-63
2022/11/29 05:11:03;;;;;;;30.17;20.80;;;;;;;4.56;100.00;101483.91;4980983;28;20065;-63
2022/11/29 05:13:44;;;;;;;24.40;21.70;;;;;;;4.57;100.00;101489.91;4977971;28;20072;-64
2022/11/29 05:16:34;;;;;;;27.00;21.87;;;;;;;4.57;100.00;101483.13;4986177;28;20033;-63
2022/11/29 05:19:19;;;;;;;27.05;20.70;;;;;;;4.55;100.00;101486.38;4988512;28;20033;-64
2022/11/29 05:22:18;;;;;;;26.13;20.43;;;;;;;4.55;100.00;101499.22;4968115;28;20490;-63
2022/11/29 05:24:52;;;;;;;23.90;20.90;;;;;;;4.53;100.00;101501.66;4987773;28;20445;-63
2022/11/29 05:27:35;;;;;;;23.20;20.70;;;;;;;4.55;100.00;101515.50;4987638;28;20297;-64
2022/11/29 05:30:05;;;;;;;22.77;20.40;;;;;;;4.56;100.00;101512.16;4988225;28;20034;-63
2022/11/29 05:32:49;;;;;;;27.20;21.47;;;;;;;4.57;100.00;101513.94;4987888;28;20080;-63
2022/11/29 05:35:17;;;;;;;22.42;20.05;;;;;;;4.57;100.00;101518.16;4980528;28;20026;-63
2022/11/29 05:37:57;;;;;;;22.83;20.23;;;;;;;4.56;100.00;101532.69;4987596;28;20129;-63
2022/11/29 05:40:31;;;;;;;22.60;20.23;;;;;;;4.54;100.00;101518.88;4987399;28;20275;-64
2022/11/29 05:43:05;;;;;;;22.60;19.67;;;;;;;4.53;100.00;101529.91;4988638;28;20037;-64
2022/11/29 05:45:51;;;;;;;22.57;19.93;;;;;;;4.54;100.00;101538.50;4988276;28;20054;-64
2022/11/29 05:48:44;;;;;;;23.47;20.67;;;;;;;4.54;100.00;101538.50;4987244;28;20164;-63
2022/11/29 05:51:15;;;;;;;24.27;20.60;;;;;;;4.52;100.00;101535.84;4987770;28;20038;-63
2022/11/29 05:54:03;;;;;;;23.67;21.23;;;;;;;4.52;100.00;101538.41;4987651;28;20025;-63
2022/11/29 05:56:43;;;;;;;21.97;19.60;;;;;;;4.51;100.00;101544.34;4987002;28;20030;-63
2022/11/29 05:59:15;;;;;;;25.50;22.52;;;;;;;4.51;100.00;101548.56;4987176;28;20852;-63
2022/11/29 06:01:49;;;;;;;25.60;21.93;;;;;;;4.51;100.00;101544.34;4985009;28;20473;-63
2022/11/29 06:04:35;;;;;;;24.93;20.57;;;;;;;4.50;100.00;101547.66;4986543;28;20038;-63
2022/11/29 06:07:15;;;;;;;26.77;21.97;;;;;;;4.51;100.00;101546.00;4976366;28;20065;-64
2022/11/29 06:09:48;;;;;;;25.57;20.57;;;;;;;4.50;100.00;101552.81;4986705;28;20022;-63
2022/11/29 06:12:22;;;;;;;25.93;21.13;;;;;;;4.50;100.00;101554.47;4986437;28;20050;-63
2022/11/29 06:15:18;;;;;;;30.53;21.93;;;;;;;4.49;100.00;101561.31;4985800;28;20033;-64
2022/11/29 06:18:05;;;;;;;24.57;20.87;;;;;;;4.51;100.00;101561.41;4988045;28;20451;-63
2022/11/29 06:20:59;;;;;;;26.57;21.50;;;;;;;4.50;100.00;101562.16;4979158;28;20064;-64
2022/11/29 06:24:05;;;;;;;28.33;21.70;;;;;;;4.49;100.00;101563.88;4981556;28;20035;-63
2022/11/29 06:27:08;;;;;;;30.37;20.77;;;;;;;4.47;100.00;101568.00;4987061;28;20052;-63
2022/11/29 06:29:53;;;;;;;28.20;21.75;;;;;;;4.48;100.00;101589.44;4981059;28;20053;-63
2022/11/29 06:32:42;;;;;;;29.37;22.20;;;;;;;4.42;100.00;101584.75;4987700;28;20073;-63
2022/11/29 06:35:34;;;;;;;32.30;22.63;;;;;;;4.42;100.00;101584.75;4987583;28;20097;-64
2022/11/29 06:38:03;;;;;;;;;;;;;;;4.45;100.00;101595.22;4983421;28;20111;-63
2022/11/29 06:40:29;;;;;;;30.90;21.53;;;;;;;4.48;100.00;101599.72;4975717;28;19913;-64
2022/11/29 06:42:54;;;;;;;36.40;23.27;;;;;;;4.49;100.00;101602.38;4987091;28;20108;-63
2022/11/29 06:45:20;;;;;;;35.40;22.93;;;;;;;4.51;100.00;101605.94;4985834;28;20383;-63
2022/11/29 06:47:58;;;;;;;37.77;24.13;;;;;;;4.51;100.00;101613.66;4983400;28;20041;-64
2022/11/29 06:51:02;;;;;;;35.37;22.83;;;;;;;4.50;100.00;101614.41;4985826;28;20505;-63
2022/11/29 06:53:53;;;;;;;39.23;22.67;;;;;;;4.50;100.00;101608.38;4984949;28;20513;-63
2022/11/29 06:56:48;;;;;;;32.30;21.17;;;;;;;4.48;100.00;101610.84;4985176;28;20018;-63
2022/11/29 06:59:25;;;;;;;37.37;21.57;;;;;;;4.46;100.00;101616.66;4985923;28;20018;-63
2022/11/29 07:02:01;;;;;;;30.07;21.87;;;;;;;4.44;100.00;101616.56;4987461;28;20045;-64
2022/11/29 07:05:00;;;;;;;33.37;21.73;;;;;;;4.43;100.00;101625.03;4986744;28;20034;-64
2022/11/29 07:07:25;;;;;;;35.33;22.43;;;;;;;4.44;100.00;101627.69;4986928;28;20053;-63
2022/11/29 07:09:53;;;;;;;36.90;23.40;;;;;;;4.46;100.00;101627.84;4980014;28;20113;-63
2022/11/29 07:12:18;;;;;;;39.47;24.00;;;;;;;4.46;100.00;101627.84;4984964;28;20030;-63
2022/11/29 07:14:44;;;;;;;38.80;22.58;;;;;;;4.48;100.00;101633.06;4986284;28;20073;-63
2022/11/29 07:17:53;;;;;;;40.10;23.40;;;;;;;4.50;100.00;101632.38;4980190;28;20080;-64
2022/11/29 07:20:33;;;;;;;43.03;24.17;;;;;;;4.53;100.00;101635.16;4988880;28;20549;-63
2022/11/29 07:23:04;;;;;;;32.53;22.87;;;;;;;4.56;100.00;101645.66;4979581;28;20278;-63
2022/11/29 07:25:51;;;;;;;36.53;23.25;;;;;;;4.55;100.00;101643.84;4987497;28;20030;-64
2022/11/29 07:28:34;;;;;;;34.92;23.58;;;;;;;4.56;100.00;101645.66;4986349;28;20031;-63
2022/11/29 07:31:08;;;;;;;34.40;22.80;;;;;;;4.57;100.00;101646.53;4979216;28;20026;-64
2022/11/29 07:33:49;;;;;;;40.37;24.10;;;;;;;4.60;100.00;101641.63;4982851;28;20216;-63
2022/11/29 07:36:24;;;;;;;40.17;24.47;;;;;;;4.62;100.00;101649.44;4986769;28;20919;-64
2022/11/29 07:39:13;;;;;;;45.72;24.25;;;;;;;4.64;100.00;101660.72;4975335;28;20517;-64
2022/11/29 07:41:49;;;;;;;42.77;25.17;;;;;;;4.66;100.00;101664.25;4983240;28;20034;-64
2022/11/29 07:44:35;;;;;;;44.40;26.00;;;;;;;4.67;100.00;101673.75;4979985;28;20054;-63
2022/11/29 07:47:00;;;;;;;47.42;25.25;;;;;;;4.68;100.00;101673.84;4976403;28;20074;-63
2022/11/29 07:49:25;;;;;;;40.65;25.48;;;;;;;4.69;100.00;101674.75;4983674;28;20030;-63
2022/11/29 07:51:53;;;;;;;44.53;24.77;;;;;;;4.69;100.00;101669.63;4986249;28;20034;-63
2022/11/29 07:54:19;;;;;;;43.45;25.65;;;;;;;4.68;100.00;101670.38;4982271;28;20097;-64
2022/11/29 07:56:44;;;;;;;41.50;24.92;;;;;;;4.68;100.00;101675.53;4981320;28;20027;-63
2022/11/29 07:59:11;;;;;;;46.60;25.85;;;;;;;4.70;100.00;101676.53;4983401;28;20022;-63
2022/11/29 08:01:36;;;;;;;53.20;25.52;;;;;;;4.71;100.00;101673.19;4988528;28;20030;-63
2022/11/29 08:04:02;;;;;;;43.83;25.33;;;;;;;4.74;100.00;101669.94;4982404;28;20085;-64
2022/11/29 08:06:27;;;;;;;47.05;24.63;;;;;;;4.75;100.00;101672.59;4986378;28;20464;-63
2022/11/29 08:08:56;;;;;;;42.53;24.40;;;;;;;4.77;100.00;101671.03;4988340;28;20533;-63
2022/11/29 08:11:21;;;;;;;43.45;24.10;;;;;;;4.79;100.00;101668.56;4988273;28;20423;-63
2022/11/29 08:13:46;;;;;;;43.88;25.25;;;;;;;4.79;100.00;101674.59;4987207;28;20034;-64
2022/11/29 08:16:17;;;;;;;41.50;25.10;;;;;;;4.79;100.00;101676.28;4987683;28;20526;-63
2022/11/29 08:18:42;;;;;;;41.72;25.55;;;;;;;4.78;100.00;101677.97;4984272;28;20038;-63
2022/11/29 08:21:08;;;;;;;43.57;24.80;;;;;;;4.74;100.00;101681.09;4983652;28;20395;-63
2022/11/29 08:23:33;;;;;;;47.35;24.90;;;;;;;4.73;100.00;101689.56;4987154;28;20115;-63
2022/11/29 08:26:00;;;;;;;50.67;25.70;;;;;;;4.74;100.00;101686.22;4986451;28;20026;-63
2022/11/29 08:28:26;;;;;;;45.97;26.17;;;;;;;4.78;100.00;101687.34;4986958;28;20077;-64
2022/11/29 08:31:03;;;;;;;49.08;25.90;;;;;;;4.82;100.00;101693.59;4986763;28;20105;-63
2022/11/29 08:33:29;;;;;;;49.28;27.33;;;;;;;4.83;100.00;101691.13;4977864;28;20033;-63
2022/11/29 08:35:55;;;;;;;54.50;27.85;;;;;;;4.85;100.00;101692.13;4983836;28;20379;-63
2022/11/29 08:38:20;;;;;;;49.65;26.38;;;;;;;4.87;100.00;101692.22;4986318;28;20037;-63
2022/11/29 08:40:46;;;;;;;46.75;26.25;;;;;;;4.88;100.00;101694.88;4984480;28;20111;-64
2022/11/29 08:43:11;;;;;;;45.22;26.75;;;;;;;4.90;100.00;101700.13;4982672;28;20471;-64
2022/11/29 08:45:36;;;;;;;49.75;27.27;;;;;;;4.92;100.00;101703.69;4986251;28;20101;-63
2022/11/29 08:48:01;;;;;;;51.13;27.02;;;;;;;4.93;100.00;101701.22;4980063;28;20267;-63
2022/11/29 08:50:27;;;;;;;55.47;28.65;;;;;;;4.94;100.00;101702.13;4987650;28;20120;-63
2022/11/29 08:55:41;;;;;;;53.22;27.65;;;;;;;4.98;100.00;101714.41;4986601;28;20057;-63
2022/11/29 08:58:09;;;;;;;48.03;27.83;;;;;;;5.01;100.00;101712.03;4987684;28;20479;-64
2022/11/29 09:00:36;;;;;;;49.33;27.45;;;;;;;5.03;100.00;101707.00;4987497;28;20102;-64
2022/11/29 09:05:47;;;;;;;51.47;28.73;;;;;;;5.10;100.00;101716.03;4988895;28;20046;-63
2022/11/29 09:08:13;;;;;;;62.05;28.45;;;;;;;5.11;100.00;101718.69;4988164;28;20482;-63
2022/11/29 09:10:39;;;;;;;54.13;28.23;;;;;;;5.13;100.00;101723.94;4987369;28;20026;-64
2022/11/29 09:13:05;;;;;;;61.35;30.15;;;;;;;5.15;100.00;101724.94;4980057;28;20022;-64
2022/11/29 09:15:31;;;;;;;52.47;27.60;;;;;;;5.17;100.00;101728.50;4987920;28;20060;-64
2022/11/29 09:17:56;;;;;;;58.95;28.48;;;;;;;5.19;100.00;101726.94;4986941;28;20026;-63
2022/11/29 09:20:21;;;;;;;58.80;28.13;;;;;;;5.20;100.00;101733.84;4985208;28;20125;-63
2022/11/29 09:22:47;;;;;;;62.22;30.33;;;;;;;5.23;100.00;101733.19;4986272;28;20529;-63
2022/11/29 09:25:12;;;;;;;54.75;28.17;;;;;;;5.24;100.00;101733.28;4987443;28;20113;-64
2022/11/29 09:27:37;;;;;;;60.50;27.95;;;;;;;5.26;100.00;101736.84;4985947;28;20485;-63
2022/11/29 09:30:03;;;;;;;55.35;27.98;;;;;;;5.26;100.00;101741.09;4987456;28;20058;-64
2022/11/29 09:32:29;;;;;;;55.97;28.25;;;;;;;5.28;100.00;101748.13;4986075;28;20026;-64
2022/11/29 09:34:55;;;;;;;52.13;27.23;;;;;;;5.27;100.00;101746.34;4987939;28;20471;-63
2022/11/29 09:37:20;;;;;;;60.63;29.58;;;;;;;5.25;100.00;101745.34;4987994;28;20100;-64
2022/11/29 09:39:45;;;;;;;53.63;29.15;;;;;;;5.28;100.00;101748.13;4985086;28;20113;-63
2022/11/29 09:42:30;;;;;;;60.67;27.55;;;;;;;5.33;100.00;101763.84;4987608;28;20133;-63
2022/11/29 09:45:13;;;;;;;58.03;30.05;;;;;;;5.36;100.00;101756.34;4985922;28;20458;-63
2022/11/29 09:48:09;;;;;;;53.85;25.50;;;;;;;5.39;100.00;101760.81;4985177;28;20034;-64
2022/11/29 09:50:41;;;;;;;58.75;26.90;;;;;;;5.42;100.00;101766.16;4988013;28;20061;-63
2022/11/29 09:53:57;;;;;;;54.60;26.58;;;;;;;5.48;100.00;101770.84;4984666;28;20037;-64
2022/11/29 09:56:29;;;;;;;52.15;26.75;;;;;;;5.53;100.00;101770.38;4965615;28;20577;-64
2022/11/29 09:59:00;;;;;;;55.00;26.75;;;;;;;5.57;100.00;101771.47;4985948;28;20234;-63
2022/11/29 10:01:30;;;;;;;55.75;25.77;;;;;;;5.62;100.00;101774.34;4988080;28;20037;-64
2022/11/29 10:04:01;;;;;;;52.13;26.05;;;;;;;5.68;100.00;101785.06;4974467;28;20050;-64
2022/11/29 10:06:30;;;;;;;;;;;;;;;5.71;100.00;101779.19;4987739;28;20030;-64
2022/11/29 10:09:02;;;;;;;52.70;24.20;;;;;;;5.73;100.00;101778.53;4986679;28;20373;-64
2022/11/29 10:11:41;;;;;;;52.65;23.75;;;;;;;5.75;100.00;101783.78;4987660;28;20209;-64
2022/11/29 10:14:21;;;;;;;50.45;24.40;;;;;;;5.79;100.00;101777.16;4986111;28;20049;-64
2022/11/29 10:16:53;;;;;;;53.45;23.77;;;;;;;5.81;100.00;101775.59;4987165;28;20026;-63
2022/11/29 10:19:36;;;;;;;43.20;22.13;;;;;;;5.81;100.00;101778.16;4979760;28;20022;-64
2022/11/29 10:22:06;;;;;;;45.80;21.63;;;;;;;5.83;100.00;101776.59;4986490;28;20030;-63
2022/11/29 10:24:32;;;;;;;40.63;18.98;;;;;;;5.83;100.00;101779.16;4982943;28;20266;-63
2022/11/29 10:26:58;;;;;;;38.15;17.50;;;;;;;5.83;100.00;101780.03;4986313;28;20427;-64
2022/11/29 10:29:23;;;;;;;38.30;18.08;;;;;;;5.85;100.00;101772.41;4985711;28;20093;-64
2022/11/29 10:31:49;;;;;;;41.83;18.77;;;;;;;5.86;100.00;101769.06;4981300;28;20086;-63
2022/11/29 10:34:21;;;;;;;42.80;18.20;;;;;;;5.88;100.00;101770.06;4986067;28;20105;-64
2022/11/29 10:36:52;;;;;;;44.28;20.42;;;;;;;5.88;100.00;101767.47;4981053;28;20046;-64
2022/11/29 10:39:24;;;;;;;;;;;;;;;5.89;100.00;101765.00;4986745;28;20069;-64
2022/11/29 10:41:59;;;;;;;37.22;16.67;;;;;;;5.90;100.00;101765.88;4986871;28;19961;-63
2022/11/29 10:44:24;;;;;;;44.97;21.00;;;;;;;5.91;100.00;101770.25;4985323;28;20447;-64
2022/11/29 10:46:50;;;;;;;44.47;21.85;;;;;;;5.91;100.00;101769.34;4984783;28;20117;-64
2022/11/29 10:49:18;;;;;;;48.85;23.08;;;;;;;5.90;100.00;101771.03;4989192;28;20057;-64
2022/11/29 10:51:45;;;;;;;44.63;25.60;;;;;;;5.89;100.00;101775.31;4990644;28;20075;-64
2022/11/29 10:54:30;;;;;;;43.58;23.05;;;;;;;5.90;100.00;101783.88;4989493;28;20023;-63
2022/11/29 10:56:58;;;;;;;42.50;21.73;;;;;;;5.89;100.00;101785.59;4989310;28;20034;-64
2022/11/29 10:59:27;;;;;;;40.70;23.90;;;;;;;5.89;100.00;101780.44;4988308;28;20026;-64
2022/11/29 11:01:53;;;;;;;42.55;22.38;;;;;;;5.87;100.00;101776.88;4990738;28;20035;-64
2022/11/29 11:04:41;;;;;;;44.88;22.33;;;;;;;5.86;100.00;101776.78;4990255;28;20517;-64
2022/11/29 11:07:24;;;;;;;41.90;21.85;;;;;;;5.87;100.00;101781.13;4988539;28;20109;-64
2022/11/29 11:09:54;;;;;;;45.28;20.45;;;;;;;5.87;100.00;101787.16;4989642;28;20404;-64
2022/11/29 11:12:24;;;;;;;46.17;20.17;;;;;;;5.89;100.00;101780.44;4989386;28;20038;-64
2022/11/29 11:14:50;;;;;;;46.93;20.70;;;;;;;5.93;100.00;101784.13;4988888;28;20033;-64
2022/11/29 11:17:24;;;;;;;48.25;22.40;;;;;;;5.94;100.00;101780.75;4989081;28;20399;-64
2022/11/29 11:20:23;;;;;;;50.92;23.98;;;;;;;5.95;100.00;101774.81;4988786;28;20029;-64
2022/11/29 11:23:02;;;;;;;47.42;22.55;;;;;;;5.97;100.00;101780.06;4985557;28;20054;-64
2022/11/29 11:25:36;;;;;;;45.20;23.73;;;;;;;5.96;100.00;101779.16;4990611;28;20069;-64
2022/11/29 11:28:22;;;;;;;48.45;22.70;;;;;;;5.96;100.00;101776.59;4988796;28;20577;-63
2022/11/29 11:31:00;;;;;;;49.33;23.27;;;;;;;5.97;100.00;101780.94;4989355;28;20030;-64
2022/11/29 11:33:30;;;;;;;48.10;22.30;;;;;;;5.96;100.00;101784.31;4989886;28;20022;-64
2022/11/29 11:36:06;;;;;;;47.00;23.00;;;;;;;5.96;100.00;101784.31;4989987;28;20074;-64
2022/11/29 11:38:34;;;;;;;42.83;22.30;;;;;;;5.98;100.00;101789.56;4989729;28;20031;-63
2022/11/29 11:41:03;;;;;;;44.75;21.75;;;;;;;5.99;100.00;101787.06;4988457;28;20533;-64
2022/11/29 11:43:29;;;;;;;47.17;23.20;;;;;;;6.07;100.00;101795.34;4989220;28;20495;-64
2022/11/29 11:45:54;;;;;;;41.88;21.98;;;;;;;6.15;100.00;101798.44;4988222;28;20129;-64
2022/11/29 11:48:20;;;;;;;46.00;22.77;;;;;;;6.19;100.00;101795.25;4989800;28;20030;-64
2022/11/29 11:50:53;;;;;;;49.30;23.20;;;;;;;6.23;100.00;101801.50;4988198;28;20321;-64
2022/11/29 11:53:21;;;;;;;45.40;23.80;;;;;;;6.22;100.00;101808.31;4989858;28;20030;-64
2022/11/29 11:55:59;;;;;;;46.05;23.08;;;;;;;6.24;100.00;101808.44;4987988;28;20034;-64